Terminal Aerodrome Forecast
Issued by NWS

Home | Current Version | Previous Version | Graphics & Text | Print | Product List | Glossary On
Versions: 1 2 3 4 5 6 7 8 9 10 11 12 13 14 15
000
FTUS43 KFGF 301720
TAFBJI
TAF
KBJI 301720Z 3018/0118 VRB06KT P6SM SCT030 SCT250
      TEMPO 3018/3020 BKN030
     FM302000 VRB06KT P6SM BKN050
     FM010000 VRB06KT P6SM SCT070 BKN250=

USA.gov is the U.S. government's official web portal to all federal, state and local government web resources and services.